Terminal Aerodrome Forecast
Issued by NWS

Home | Current Version | Previous Version | Text Only | Print | Product List | Glossary On
Versions: 1 2 3 4 5 6 7 8 9 10 11 12 13 14 15 16
000
FTUS42 KILM 281734
TAFCRE
TAF
KCRE 281734Z 2818/2918 19015G21KT P6SM FEW008 SCT025 BKN035
      TEMPO 2818/2819 BKN007 BKN015
     FM290000 20012KT P6SM SCT015 BKN250
     FM290700 20007KT 4SM BR FEW004 SCT015 BKN035
      TEMPO 2908/2912 BKN004
     FM291500 19013KT P6SM SCT015 BKN035=

USA.gov is the U.S. government's official web portal to all federal, state and local government web resources and services.